Time;durP1;ratioP1;P1;durP2;ratioP2;P2;SDS_P1;SDS_P2;PMS_P1;PMS_P2;Temp;Humidity;BMP_temperature;BMP_pressure;BME280_temperature;BME280_humidity;BME280_pressure;Samples;Min_cycle;Max_cycle;Signal;HPM_P1;HPM_P2
2023/10/05 00:01:27;;;;;;;3.23;2.63;;;;;;;16.58;67.24;100141.97;5091711;28;20743;-72
2023/10/05 00:03:54;;;;;;;4.67;3.07;;;;;;;16.50;67.35;100136.28;5090985;28;20610;-72
2023/10/05 00:06:25;;;;;;;2.30;2.17;;;;;;;16.49;67.34;100144.09;5091308;28;20207;-72
2023/10/05 00:08:54;;;;;;;3.97;2.83;;;;;;;16.35;67.15;100136.91;5091367;28;20199;-72
2023/10/05 00:11:24;;;;;;;7.27;2.23;;;;;;;16.44;67.45;100149.47;5090870;28;20199;-72
2023/10/05 00:13:52;;;;;;;3.83;3.47;;;;;;;16.38;67.66;100141.94;5091165;28;20203;-72
2023/10/05 00:16:21;;;;;;;5.27;2.63;;;;;;;16.37;67.45;100140.28;5091035;28;20679;-72
2023/10/05 00:18:50;;;;;;;2.30;2.20;;;;;;;16.38;67.60;100141.94;5090896;28;20227;-72
2023/10/05 00:21:19;;;;;;;3.67;2.40;;;;;;;16.36;67.39;100142.91;5091442;28;20286;-71
2023/10/05 00:23:50;;;;;;;3.63;2.67;;;;;;;16.34;67.11;100145.59;5091167;28;20632;-72
2023/10/05 00:26:22;;;;;;;4.10;2.57;;;;;;;16.32;67.35;100147.38;5090471;28;20586;-72
2023/10/05 00:29:00;;;;;;;6.57;2.97;;;;;;;16.30;67.58;100154.38;5090792;28;20195;-72
2023/10/05 00:31:27;;;;;;;5.97;2.63;;;;;;;16.28;67.79;100149.25;5090779;28;20187;-72
2023/10/05 00:33:56;;;;;;;3.10;2.30;;;;;;;16.27;67.50;100149.34;5090592;28;20276;-72
2023/10/05 00:36:24;;;;;;;6.90;3.10;;;;;;;16.20;67.82;100159.09;5089629;28;20187;-72
2023/10/05 00:38:52;;;;;;;6.30;2.30;;;;;;;16.16;68.37;100146.34;5090926;28;20207;-72
2023/10/05 00:41:22;;;;;;;4.93;2.97;;;;;;;16.11;68.21;100153.44;5090746;28;20188;-71
2023/10/05 00:43:49;;;;;;;2.67;1.97;;;;;;;16.02;68.53;100153.81;5090669;28;20222;-72
2023/10/05 00:46:15;;;;;;;3.60;3.30;;;;;;;15.94;68.89;100150.69;5090457;28;20210;-71
2023/10/05 00:48:58;;;;;;;7.13;2.77;;;;;;;15.93;68.96;100154.19;5090767;28;20199;-72
2023/10/05 00:51:30;;;;;;;2.63;2.37;;;;;;;15.91;69.29;100154.25;5090423;28;20207;-72
2023/10/05 00:53:59;;;;;;;3.17;2.97;;;;;;;15.91;69.84;100153.41;5090197;28;20202;-72
2023/10/05 00:56:33;;;;;;;4.17;2.80;;;;;;;15.90;70.20;100149.97;5089211;28;20277;-71
2023/10/05 00:59:05;;;;;;;4.53;2.23;;;;;;;15.89;69.84;100160.41;5090856;28;20885;-72
2023/10/05 01:01:50;;;;;;;3.37;2.50;;;;;;;15.86;70.12;100157.94;5090693;28;20203;-71
2023/10/05 01:04:23;;;;;;;6.57;2.70;;;;;;;15.88;70.43;100158.69;5087614;28;20207;-72
2023/10/05 01:06:55;;;;;;;3.53;3.23;;;;;;;15.84;70.26;100149.38;5090272;28;20225;-72
2023/10/05 01:09:40;;;;;;;5.77;2.87;;;;;;;15.82;70.77;100153.78;5090793;28;20206;-72
2023/10/05 01:12:22;;;;;;;3.93;2.70;;;;;;;15.82;71.19;100156.38;5090437;28;20207;-72
2023/10/05 01:14:52;;;;;;;5.40;3.17;;;;;;;15.79;71.44;100162.50;5089788;28;20282;-72
2023/10/05 01:17:21;;;;;;;2.90;1.90;;;;;;;15.72;71.60;100156.72;5090346;28;20208;-72
2023/10/05 01:19:54;;;;;;;4.03;3.00;;;;;;;15.74;72.04;100161.81;5090271;28;20218;-72
2023/10/05 01:22:22;;;;;;;6.40;3.20;;;;;;;15.72;71.90;100167.06;5090447;28;20675;-72
2023/10/05 01:24:50;;;;;;;3.37;3.07;;;;;;;15.70;72.27;100158.50;5089837;28;20272;-72
2023/10/05 01:27:18;;;;;;;4.30;2.87;;;;;;;15.69;72.38;100166.34;5089531;28;20226;-72
2023/10/05 01:29:45;;;;;;;4.27;2.73;;;;;;;15.60;72.29;100152.03;5090228;28;20616;-71
2023/10/05 01:32:15;;;;;;;3.03;1.80;;;;;;;15.57;73.11;100157.31;5090390;28;20276;-72
2023/10/05 01:34:42;;;;;;;5.43;2.63;;;;;;;15.54;73.23;100149.66;5090036;28;20198;-71
2023/10/05 01:37:09;;;;;;;2.60;2.40;;;;;;;15.49;73.74;100150.75;5090165;28;20218;-72
2023/10/05 01:39:43;;;;;;;5.30;2.83;;;;;;;15.44;73.75;100150.91;5090200;28;20287;-72
2023/10/05 01:42:11;;;;;;;6.10;3.07;;;;;;;15.44;74.26;100156.09;5090372;28;20202;-72
2023/10/05 01:44:40;;;;;;;3.50;2.50;;;;;;;15.42;74.78;100155.28;5090203;28;20254;-72
2023/10/05 01:47:07;;;;;;;4.30;2.70;;;;;;;15.40;74.66;100159.69;5090136;28;20632;-72
2023/10/05 01:49:34;;;;;;;5.57;2.57;;;;;;;15.33;75.27;100165.97;5093641;28;20461;-72
2023/10/05 01:52:00;;;;;;;3.13;2.80;;;;;;;15.30;75.17;100163.50;5094068;28;20199;-72
2023/10/05 01:54:28;;;;;;;9.73;2.97;;;;;;;15.29;74.91;100172.13;5093762;28;20191;-72
2023/10/05 01:56:56;;;;;;;3.67;2.53;;;;;;;15.25;74.62;100170.56;5093708;28;20252;-71
2023/10/05 01:59:27;;;;;;;3.20;2.83;;;;;;;15.22;74.30;100173.25;5093465;28;20209;-72
2023/10/05 02:01:54;;;;;;;7.47;2.60;;;;;;;15.20;74.23;100168.16;5093757;28;20221;-71
2023/10/05 02:04:22;;;;;;;6.63;2.83;;;;;;;15.06;73.98;100154.06;5093700;28;20525;-72
2023/10/05 02:06:52;;;;;;;3.27;2.50;;;;;;;15.03;74.37;100177.41;5093304;28;20683;-72
2023/10/05 02:09:19;;;;;;;2.70;2.50;;;;;;;14.90;75.23;100173.56;5093710;28;20646;-72
2023/10/05 02:11:47;;;;;;;8.30;3.00;;;;;;;14.89;75.17;100177.06;5093390;28;20205;-72
2023/10/05 02:14:16;;;;;;;5.47;2.60;;;;;;;14.89;74.92;100179.66;5093403;28;20201;-72
2023/10/05 02:16:48;;;;;;;3.43;2.97;;;;;;;14.88;75.04;100180.53;5093371;28;20187;-72
2023/10/05 02:19:16;;;;;;;7.00;2.63;;;;;;;14.85;74.73;100176.34;5092828;28;20650;-72
2023/10/05 02:21:45;;;;;;;2.97;2.67;;;;;;;14.82;74.70;100181.59;5093368;28;20205;-72
2023/10/05 02:24:15;;;;;;;5.83;2.77;;;;;;;14.75;74.62;100174.97;5093107;28;20286;-72
2023/10/05 02:26:54;;;;;;;3.47;2.90;;;;;;;14.71;74.33;100179.41;5093443;28;20222;-72
2023/10/05 02:29:21;;;;;;;2.20;2.10;;;;;;;14.70;74.22;100182.03;5093025;28;20191;-72
2023/10/05 02:31:57;;;;;;;3.47;3.17;;;;;;;14.67;73.82;100188.13;5093203;28;20274;-72
2023/10/05 02:34:24;;;;;;;4.07;2.93;;;;;;;14.63;73.65;100186.56;5093093;28;20596;-72
2023/10/05 02:36:54;;;;;;;3.27;3.07;;;;;;;14.59;73.45;100184.13;5093197;28;20202;-72
2023/10/05 02:39:22;;;;;;;2.97;2.77;;;;;;;14.56;73.63;100191.97;5093090;28;20685;-72
2023/10/05 02:41:50;;;;;;;3.07;2.00;;;;;;;14.49;73.85;100187.91;5092928;28;20621;-72
2023/10/05 02:44:19;;;;;;;3.83;3.33;;;;;;;14.55;73.72;100193.72;5092453;28;20202;-72
2023/10/05 02:46:47;;;;;;;4.67;3.17;;;;;;;14.50;74.08;100200.78;5092671;28;20208;-72
2023/10/05 02:49:16;;;;;;;2.80;2.50;;;;;;;14.38;74.70;100179.72;5092493;28;20251;-72
2023/10/05 02:51:43;;;;;;;5.17;3.43;;;;;;;14.45;75.24;100196.66;5092764;28;20283;-72
2023/10/05 02:54:10;;;;;;;2.77;2.67;;;;;;;14.42;75.14;100196.75;5092561;28;20204;-72
2023/10/05 02:56:40;;;;;;;2.67;2.53;;;;;;;14.31;75.42;100184.19;5092900;28;20295;-72
2023/10/05 02:59:10;;;;;;;2.80;2.47;;;;;;;14.39;75.60;100192.53;5091920;28;20205;-72
2023/10/05 03:01:37;;;;;;;3.33;3.13;;;;;;;14.41;75.26;100193.31;5092259;28;20203;-72
2023/10/05 03:04:16;;;;;;;3.47;3.23;;;;;;;14.37;74.86;100196.91;5092465;28;20295;-72
2023/10/05 03:06:47;;;;;;;3.17;2.70;;;;;;;14.20;74.75;100170.78;5092557;28;20713;-72
2023/10/05 03:09:16;;;;;;;4.43;3.57;;;;;;;14.23;75.51;100191.31;5092074;28;20237;-72
2023/10/05 03:11:46;;;;;;;3.50;3.20;;;;;;;14.25;75.90;100199.84;5092301;28;20282;-73
2023/10/05 03:14:16;;;;;;;3.70;2.47;;;;;;;14.19;76.38;100187.16;5092262;28;20276;-72
2023/10/05 03:16:48;;;;;;;4.33;2.23;;;;;;;14.16;76.40;100194.97;5092433;28;20279;-72
2023/10/05 03:19:20;;;;;;;5.37;3.00;;;;;;;14.15;76.87;100188.16;5092131;28;20739;-72
2023/10/05 03:21:49;;;;;;;2.43;2.27;;;;;;;14.12;77.40;100193.38;5092374;28;20204;-72
2023/10/05 03:24:19;;;;;;;4.17;3.30;;;;;;;14.12;77.70;100190.81;5091792;28;20210;-72
2023/10/05 03:26:48;;;;;;;3.53;2.80;;;;;;;14.09;77.55;100198.66;5091552;28;20201;-72
2023/10/05 03:29:15;;;;;;;2.50;2.13;;;;;;;14.09;77.37;100198.66;5092064;28;20219;-72
2023/10/05 03:31:53;;;;;;;3.60;2.37;;;;;;;14.07;77.68;100200.44;5091735;28;20204;-71
2023/10/05 03:34:20;;;;;;;4.97;3.13;;;;;;;14.05;78.22;100197.94;5091952;28;20364;-72
2023/10/05 03:36:48;;;;;;;3.93;2.97;;;;;;;14.03;78.47;100194.53;5091585;28;20282;-72
2023/10/05 03:39:17;;;;;;;5.93;2.80;;;;;;;13.95;78.71;100187.94;5092059;28;20655;-72
2023/10/05 03:41:44;;;;;;;4.80;2.97;;;;;;;13.91;79.02;100188.91;5091995;28;20199;-71
2023/10/05 03:44:15;;;;;;;3.77;2.33;;;;;;;13.84;79.28;100187.41;5089209;28;20734;-72
2023/10/05 03:46:42;;;;;;;2.50;2.30;;;;;;;13.80;80.33;100196.13;5091767;28;20209;-70
2023/10/05 03:49:09;;;;;;;4.87;3.37;;;;;;;13.81;80.40;100205.56;5091730;28;20215;-72
2023/10/05 03:51:37;;;;;;;2.10;2.00;;;;;;;13.80;81.00;100204.72;5091970;28;20199;-72
2023/10/05 03:54:07;;;;;;;2.17;2.07;;;;;;;13.81;81.16;100213.28;5091500;28;20197;-71
2023/10/05 03:56:36;;;;;;;4.00;2.67;;;;;;;13.83;81.33;100211.53;5091408;28;20200;-72
2023/10/05 03:59:03;;;;;;;2.03;1.87;;;;;;;13.82;81.11;100199.53;5091374;28;20197;-72
2023/10/05 04:01:30;;;;;;;2.00;1.83;;;;;;;13.81;81.28;100210.72;5091341;28;20204;-71
2023/10/05 04:03:57;;;;;;;3.20;2.63;;;;;;;13.82;81.58;100204.69;5091351;28;20207;-71
2023/10/05 04:06:26;;;;;;;6.60;2.90;;;;;;;13.85;81.64;100212.31;5091366;28;20200;-72
2023/10/05 04:08:57;;;;;;;3.17;2.90;;;;;;;13.82;81.67;100213.25;5091261;28;20614;-72
2023/10/05 04:11:27;;;;;;;2.90;2.60;;;;;;;13.76;82.61;100220.31;5091575;28;20195;-72
2023/10/05 04:13:54;;;;;;;3.10;2.40;;;;;;;13.72;83.47;100221.31;5090876;28;20199;-72
2023/10/05 04:16:28;;;;;;;2.73;2.57;;;;;;;13.73;83.18;100217.84;5091100;28;20195;-72
2023/10/05 04:18:58;;;;;;;2.10;1.93;;;;;;;13.64;83.69;100199.19;5091166;28;20191;-71
2023/10/05 04:21:25;;;;;;;4.23;1.83;;;;;;;13.75;83.68;100213.47;5091375;28;20196;-72
2023/10/05 04:23:52;;;;;;;2.17;1.97;;;;;;;13.74;83.69;100215.19;5090805;28;20196;-72
2023/10/05 04:26:20;;;;;;;11.00;2.93;;;;;;;13.76;83.86;100217.75;5091484;28;20202;-72
2023/10/05 04:28:57;;;;;;;1.77;1.57;;;;;;;13.73;84.59;100202.38;5090976;28;20651;-71
2023/10/05 04:31:26;;;;;;;6.53;2.47;;;;;;;13.81;84.48;100219.28;5091494;28;20196;-72
2023/10/05 04:33:54;;;;;;;2.10;1.70;;;;;;;13.78;84.74;100218.53;5090590;28;20579;-71
2023/10/05 04:36:23;;;;;;;3.20;1.97;;;;;;;13.76;84.96;100205.72;5091089;28;20566;-71
2023/10/05 04:38:51;;;;;;;2.73;1.87;;;;;;;13.75;84.91;100209.16;5090526;28;20196;-71
2023/10/05 04:41:19;;;;;;;6.50;2.33;;;;;;;13.77;85.48;100216.84;5089600;28;20229;-71
2023/10/05 04:43:50;;;;;;;1.90;1.80;;;;;;;13.75;85.83;100201.44;5090294;28;20278;-71
2023/10/05 04:46:18;;;;;;;3.10;3.00;;;;;;;13.86;85.62;100221.75;5090175;28;20204;-71
2023/10/05 04:48:55;;;;;;;8.07;2.67;;;;;;;13.87;85.64;100218.25;5089992;28;20251;-71
2023/10/05 04:51:25;;;;;;;4.03;2.07;;;;;;;13.90;85.47;100221.59;5090210;28;20206;-71
2023/10/05 04:53:54;;;;;;;1.20;1.20;;;;;;;13.91;85.66;100220.69;5090380;28;20197;-71
2023/10/05 04:56:34;;;;;;;1.20;1.10;;;;;;;13.91;85.39;100219.84;5089891;28;20204;-71
2023/10/05 05:04:52;;;;;;;2.00;1.90;;;;;;;13.97;85.92;100235.13;5088857;28;20226;-72
2023/10/05 05:07:21;;;;;;;7.03;2.07;;;;;;;14.00;85.41;100240.19;5088969;28;20202;-70
2023/10/05 05:09:50;;;;;;;2.23;2.10;;;;;;;13.90;85.21;100207.84;5090509;28;20680;-72
2023/10/05 05:12:17;;;;;;;3.10;1.93;;;;;;;14.09;84.88;100234.75;5090352;28;20199;-71
2023/10/05 05:14:49;;;;;;;2.50;2.37;;;;;;;14.10;84.96;100237.28;5090064;28;20218;-72
2023/10/05 05:17:18;;;;;;;2.87;2.30;;;;;;;14.05;85.14;100228.88;5089358;28;20203;-72
2023/10/05 05:19:46;;;;;;;2.20;2.03;;;;;;;14.18;85.26;100239.63;5090391;28;20213;-72
2023/10/05 05:22:13;;;;;;;2.13;2.03;;;;;;;14.19;84.87;100236.16;5090391;28;20200;-72
2023/10/05 05:24:41;;;;;;;1.97;1.80;;;;;;;14.22;84.54;100241.19;5093615;28;20667;-72
2023/10/05 05:27:21;;;;;;;2.10;2.00;;;;;;;14.27;85.30;100241.91;5093512;28;20207;-72
2023/10/05 05:29:51;;;;;;;2.47;2.23;;;;;;;14.33;85.44;100244.34;5094612;28;20690;-72
2023/10/05 05:32:19;;;;;;;3.17;2.20;;;;;;;14.40;85.59;100240.66;5087978;28;20207;-72
2023/10/05 05:34:49;;;;;;;4.87;2.30;;;;;;;14.41;85.21;100226.84;5092830;28;20632;-72
2023/10/05 05:37:25;;;;;;;3.10;2.80;;;;;;;14.51;84.83;100229.97;5093390;28;20234;-72
2023/10/05 05:39:53;;;;;;;5.40;3.20;;;;;;;14.56;84.87;100238.44;5093715;28;20208;-72
2023/10/05 05:42:20;;;;;;;3.20;2.87;;;;;;;14.64;84.72;100236.41;5094275;28;20206;-72
2023/10/05 05:44:47;;;;;;;1.83;1.73;;;;;;;14.71;84.11;100241.34;5093337;28;20212;-75
2023/10/05 05:47:15;;;;;;;3.07;2.53;;;;;;;14.81;83.82;100243.59;5093861;28;20286;-80
2023/10/05 05:49:45;;;;;;;6.70;2.40;;;;;;;14.84;83.71;100256.41;5093674;28;20268;-68
2023/10/05 05:52:12;;;;;;;5.50;2.73;;;;;;;14.85;83.14;100261.53;5093248;28;20670;-71
2023/10/05 05:54:39;;;;;;;4.60;2.67;;;;;;;14.92;83.34;100259.59;5093553;28;20199;-69
2023/10/05 05:57:06;;;;;;;5.17;2.33;;;;;;;14.94;83.61;100274.13;5093912;28;20215;-71
2023/10/05 05:59:34;;;;;;;8.93;2.90;;;;;;;14.90;84.01;100256.19;5094103;28;20197;-71
2023/10/05 06:02:03;;;;;;;2.83;2.42;;;;;;;15.00;83.44;100273.06;5093589;28;20432;-63
2023/10/05 06:04:33;;;;;;;6.10;2.37;;;;;;;15.11;82.45;100274.41;5094947;28;20200;-64
2023/10/05 06:07:00;;;;;;;9.43;2.03;;;;;;;15.17;82.45;100275.91;5094946;28;20677;-63
2023/10/05 06:09:33;;;;;;;9.07;2.83;;;;;;;15.27;82.01;100271.25;5094703;28;20233;-64
2023/10/05 06:12:00;;;;;;;4.20;2.00;;;;;;;15.39;82.08;100276.84;5094712;28;20684;-63
2023/10/05 06:14:27;;;;;;;5.77;2.33;;;;;;;15.45;81.81;100286.09;5094671;28;20249;-63
2023/10/05 06:16:54;;;;;;;2.70;2.50;;;;;;;15.51;81.39;100285.94;5094474;28;20736;-63
2023/10/05 06:19:21;;;;;;;2.90;2.63;;;;;;;15.62;81.09;100282.06;5094593;28;20226;-63
2023/10/05 06:21:50;;;;;;;2.33;2.23;;;;;;;15.78;81.05;100277.16;5094419;28;20203;-63
2023/10/05 06:24:16;;;;;;;3.90;2.37;;;;;;;16.01;80.18;100286.63;5094262;28;20269;-63
2023/10/05 06:26:45;;;;;;;2.20;2.07;;;;;;;16.21;79.84;100289.28;5094516;28;20262;-63
2023/10/05 06:29:13;;;;;;;2.90;1.90;;;;;;;16.41;77.55;100296.28;5094389;28;20273;-63
2023/10/05 06:31:43;;;;;;;2.57;2.47;;;;;;;16.60;76.21;100298.09;5094260;28;20658;-63
2023/10/05 06:34:10;;;;;;;3.87;2.17;;;;;;;16.76;75.41;100298.31;5093830;28;20203;-63
2023/10/05 06:36:37;;;;;;;2.80;2.50;;;;;;;16.90;76.00;100295.16;5093755;28;20295;-64
2023/10/05 06:39:06;;;;;;;3.80;2.23;;;;;;;17.13;75.29;100313.16;5093976;28;20195;-63
2023/10/05 06:41:34;;;;;;;4.43;2.13;;;;;;;17.31;73.50;100307.19;5094106;28;20210;-63
2023/10/05 06:44:01;;;;;;;2.57;2.37;;;;;;;17.49;72.81;100305.53;5093525;28;20252;-62
2023/10/05 06:46:28;;;;;;;2.43;2.23;;;;;;;17.71;73.82;100289.00;5092936;28;20563;-61
2023/10/05 06:48:55;;;;;;;2.70;2.50;;;;;;;17.89;74.44;100282.13;5093601;28;20211;-61
2023/10/05 06:51:29;;;;;;;2.50;2.17;;;;;;;18.23;71.35;100307.34;5093550;28;20203;-61
2023/10/05 06:53:57;;;;;;;2.60;2.10;;;;;;;18.44;70.47;100306.34;5090733;28;20199;-61
2023/10/05 06:56:26;;;;;;;3.53;2.10;;;;;;;18.66;70.97;100309.59;5089038;28;20204;-61
2023/10/05 06:58:53;;;;;;;3.10;2.90;;;;;;;18.85;69.19;100305.19;5092908;28;20198;-61
2023/10/05 07:01:21;;;;;;;3.53;3.33;;;;;;;19.09;67.60;100302.28;5092721;28;20733;-62
2023/10/05 07:03:52;;;;;;;4.07;3.77;;;;;;;19.34;68.23;100307.91;5092860;28;20233;-62
2023/10/05 07:06:21;;;;;;;4.93;2.67;;;;;;;19.58;66.91;100306.63;5093526;28;20730;-62
2023/10/05 07:09:12;;;;;;;2.27;1.83;;;;;;;19.86;65.02;100301.66;5093720;28;20324;-61
2023/10/05 07:11:40;;;;;;;5.63;2.67;;;;;;;20.11;64.73;100305.53;5093330;28;20737;-61
2023/10/05 07:14:09;;;;;;;5.20;3.23;;;;;;;20.32;65.12;100305.19;5092357;28;20294;-62
2023/10/05 07:16:36;;;;;;;4.37;2.30;;;;;;;20.49;64.62;100306.88;5093467;28;20286;-62
2023/10/05 07:19:05;;;;;;;4.17;3.00;;;;;;;20.67;63.33;100310.22;5093314;28;20227;-61
2023/10/05 07:21:33;;;;;;;3.63;2.63;;;;;;;20.80;64.88;100296.41;5092970;28;20199;-61
2023/10/05 07:24:00;;;;;;;4.13;2.70;;;;;;;20.91;61.75;100299.19;5093043;28;20202;-63
2023/10/05 07:26:27;;;;;;;3.37;2.70;;;;;;;21.10;62.46;100298.16;5093010;28;20841;-62
2023/10/05 07:28:55;;;;;;;2.07;1.97;;;;;;;21.26;61.28;100298.94;5093105;28;20214;-62
2023/10/05 07:31:23;;;;;;;3.10;2.47;;;;;;;21.27;62.34;100298.81;5092442;28;20214;-61
2023/10/05 07:33:57;;;;;;;4.03;2.03;;;;;;;21.35;62.20;100296.63;5091282;28;20195;-63
2023/10/05 07:36:24;;;;;;;2.33;2.07;;;;;;;21.51;61.11;100299.13;5091792;28;20242;-62
2023/10/05 07:38:51;;;;;;;4.10;3.17;;;;;;;21.59;60.76;100286.44;5092852;28;20207;-61
2023/10/05 07:41:18;;;;;;;3.23;3.03;;;;;;;21.71;60.69;100288.28;5092665;28;20199;-62
2023/10/05 07:43:46;;;;;;;3.53;3.23;;;;;;;21.83;61.86;100289.31;5092951;28;20202;-61
2023/10/05 07:46:16;;;;;;;3.17;2.87;;;;;;;21.89;60.71;100300.25;5092330;28;20214;-62
2023/10/05 07:48:43;;;;;;;4.63;2.23;;;;;;;21.91;60.89;100292.31;5084645;28;20253;-61
2023/10/05 07:51:16;;;;;;;2.23;2.03;;;;;;;21.91;60.09;100292.31;5093057;28;20282;-62
2023/10/05 07:53:43;;;;;;;2.00;1.90;;;;;;;21.98;61.20;100294.44;5092886;28;20255;-62
2023/10/05 07:56:11;;;;;;;4.37;2.97;;;;;;;22.04;58.80;100294.97;5093083;28;20199;-63
2023/10/05 07:58:38;;;;;;;2.43;2.27;;;;;;;22.09;59.18;100300.75;5092867;28;20284;-62
2023/10/05 08:01:05;;;;;;;3.07;2.97;;;;;;;22.12;59.39;100295.34;5092966;28;20553;-62
2023/10/05 08:03:35;;;;;;;4.23;2.60;;;;;;;22.30;60.07;100294.16;5092937;28;20249;-62
2023/10/05 08:06:02;;;;;;;2.53;2.13;;;;;;;22.48;58.20;100290.38;5092599;28;20222;-62
2023/10/05 08:08:30;;;;;;;2.60;2.40;;;;;;;22.66;57.15;100296.19;5092240;28;20264;-63
2023/10/05 08:10:57;;;;;;;2.57;2.20;;;;;;;22.86;56.17;100298.34;5090975;28;20195;-62
2023/10/05 08:13:24;;;;;;;2.17;2.07;;;;;;;22.93;57.61;100295.22;5092134;28;20192;-63
2023/10/05 08:15:51;;;;;;;3.37;2.13;;;;;;;23.12;57.75;100286.13;5091876;28;20640;-62
2023/10/05 08:18:19;;;;;;;2.47;2.27;;;;;;;23.24;55.74;100283.50;5092274;28;20260;-62
2023/10/05 08:20:47;;;;;;;2.60;2.40;;;;;;;23.30;55.42;100287.47;5091632;28;20227;-62
2023/10/05 08:23:14;;;;;;;8.03;2.77;;;;;;;23.44;56.99;100279.56;5091462;28;20207;-62
2023/10/05 08:25:42;;;;;;;2.80;2.60;;;;;;;23.66;54.35;100278.88;5091587;28;20606;-62
2023/10/05 08:28:10;;;;;;;3.30;2.07;;;;;;;23.88;53.84;100272.03;5090664;28;20203;-62
2023/10/05 08:30:45;;;;;;;10.43;2.77;;;;;;;24.11;54.33;100280.03;5091462;28;20218;-62
2023/10/05 08:33:15;;;;;;;3.37;2.40;;;;;;;24.24;52.04;100276.44;5091830;28;20244;-62
2023/10/05 08:35:42;;;;;;;2.23;2.13;;;;;;;24.40;51.44;100277.00;5091954;28;20339;-62
2023/10/05 08:38:15;;;;;;;2.60;1.83;;;;;;;24.52;50.26;100277.91;5091729;28;20192;-62
2023/10/05 08:40:43;;;;;;;2.50;2.30;;;;;;;24.47;51.74;100256.41;5086862;28;20195;-63
2023/10/05 08:43:10;;;;;;;3.47;2.13;;;;;;;24.72;48.09;100273.78;5081118;28;20293;-63
2023/10/05 08:45:45;;;;;;;5.13;2.30;;;;;;;24.75;47.04;100271.75;5091796;28;20195;-63
2023/10/05 08:48:15;;;;;;;2.90;2.17;;;;;;;24.97;45.70;100277.13;5091723;28;20191;-63
2023/10/05 08:50:46;;;;;;;2.17;1.97;;;;;;;24.75;43.95;100277.00;5091739;28;20215;-63
2023/10/05 08:53:15;;;;;;;2.60;2.40;;;;;;;24.90;47.09;100269.81;5091815;28;20202;-63
2023/10/05 08:55:47;;;;;;;5.33;2.10;;;;;;;25.12;46.99;100266.38;5091616;28;20609;-65
2023/10/05 08:58:18;;;;;;;1.50;1.40;;;;;;;25.24;46.84;100258.41;5090456;28;20675;-63
2023/10/05 09:00:45;;;;;;;2.10;1.90;;;;;;;25.46;44.06;100263.66;5091752;28;20579;-64
2023/10/05 09:03:29;;;;;;;2.17;2.07;;;;;;;25.66;42.58;100258.66;5091473;28;20199;-64
2023/10/05 09:06:13;;;;;;;1.70;1.60;;;;;;;25.84;43.22;100258.06;5091412;28;20277;-64
2023/10/05 09:09:01;;;;;;;2.70;2.20;;;;;;;26.04;43.19;100262.53;5084661;28;20278;-65
2023/10/05 09:11:31;;;;;;;2.03;1.93;;;;;;;26.18;44.29;100260.63;5090847;28;20693;-64
2023/10/05 09:14:12;;;;;;;2.67;2.23;;;;;;;26.24;42.74;100265.38;5091386;28;20207;-64
2023/10/05 09:16:43;;;;;;;3.50;2.03;;;;;;;26.39;42.85;100253.63;5091398;28;20256;-65
2023/10/05 09:19:15;;;;;;;1.93;1.63;;;;;;;26.48;42.34;100252.88;5091340;28;20595;-64
2023/10/05 09:21:55;;;;;;;1.57;1.47;;;;;;;26.51;42.48;100257.88;5091866;28;20570;-61
2023/10/05 09:24:23;;;;;;;2.43;1.77;;;;;;;26.64;42.74;100261.16;5090783;28;20245;-61
2023/10/05 09:26:51;;;;;;;3.63;2.40;;;;;;;26.69;42.01;100253.69;5090304;28;20199;-61
2023/10/05 09:29:22;;;;;;;1.83;1.73;;;;;;;26.62;41.98;100255.19;5090712;28;20687;-61
2023/10/05 09:31:53;;;;;;;2.17;1.97;;;;;;;26.72;42.47;100253.44;5090922;28;20231;-61
2023/10/05 09:34:37;;;;;;;2.10;1.33;;;;;;;26.87;42.23;100244.31;5090648;28;20660;-64
2023/10/05 09:37:06;;;;;;;2.00;1.90;;;;;;;26.93;43.17;100232.44;5088151;28;20199;-62
2023/10/05 09:39:42;;;;;;;2.20;2.00;;;;;;;27.00;42.13;100228.31;5090083;28;20260;-61
2023/10/05 09:42:14;;;;;;;2.63;2.00;;;;;;;27.14;40.91;100230.63;5088303;28;20195;-62
2023/10/05 09:44:50;;;;;;;2.70;2.07;;;;;;;26.99;39.77;100227.47;5090329;28;20234;-62
2023/10/05 09:47:19;;;;;;;2.30;2.17;;;;;;;27.16;41.42;100225.19;5089995;28;20203;-61
2023/10/05 09:49:46;;;;;;;2.70;1.87;;;;;;;27.27;41.55;100211.97;5089679;28;20207;-62
2023/10/05 09:52:14;;;;;;;1.60;1.50;;;;;;;27.47;41.94;100211.06;5088978;28;20212;-62
2023/10/05 09:54:43;;;;;;;1.97;1.27;;;;;;;27.64;40.88;100206.00;5089666;28;20207;-62
2023/10/05 09:57:11;;;;;;;2.53;1.47;;;;;;;27.38;39.16;100207.41;5090552;28;20575;-62
2023/10/05 09:59:41;;;;;;;1.80;1.70;;;;;;;27.21;38.71;100212.47;5089452;28;20206;-62
2023/10/05 10:02:14;;;;;;;1.97;1.77;;;;;;;27.29;42.86;100191.59;5089813;28;20200;-61
2023/10/05 10:04:42;;;;;;;1.93;1.83;;;;;;;27.14;39.39;100193.75;5088872;28;20202;-63
2023/10/05 10:07:15;;;;;;;2.60;1.90;;;;;;;27.00;40.11;100197.56;5088266;28;20196;-61
2023/10/05 10:09:53;;;;;;;1.83;1.13;;;;;;;27.14;39.89;100188.50;5092003;28;20265;-61
2023/10/05 10:12:27;;;;;;;3.53;1.70;;;;;;;27.30;39.14;100182.72;5092960;28;20195;-61
2023/10/05 10:14:58;;;;;;;1.93;1.60;;;;;;;27.28;38.86;100185.47;5091945;28;20671;-60
2023/10/05 10:17:31;;;;;;;1.47;1.37;;;;;;;27.28;39.22;100185.47;5094520;28;20579;-62
2023/10/05 10:20:13;;;;;;;1.07;1.07;;;;;;;27.33;38.94;100182.47;5093478;28;20218;-61
2023/10/05 10:22:55;;;;;;;1.40;1.30;;;;;;;27.20;39.90;100155.53;5094479;28;20261;-64
2023/10/05 10:25:31;;;;;;;1.67;1.57;;;;;;;27.42;40.31;100171.97;5093088;28;20686;-64
2023/10/05 10:28:16;;;;;;;1.70;1.13;;;;;;;27.46;38.38;100168.13;5092397;28;20244;-64
2023/10/05 10:31:17;;;;;;;1.43;1.33;;;;;;;27.49;38.84;100164.38;5094340;28;20215;-64
2023/10/05 10:33:50;;;;;;;3.13;1.43;;;;;;;27.57;39.07;100143.44;5089793;28;20203;-64
2023/10/05 10:36:21;;;;;;;1.33;1.23;;;;;;;27.59;37.68;100152.88;5094352;28;20241;-65
2023/10/05 10:38:50;;;;;;;1.90;1.80;;;;;;;27.54;38.01;100143.72;5094245;28;20195;-65
2023/10/05 10:41:21;;;;;;;1.40;1.30;;;;;;;27.54;39.00;100143.72;5094317;28;20605;-67
2023/10/05 10:43:52;;;;;;;1.67;1.60;;;;;;;27.59;37.94;100133.63;5094036;28;20195;-64
2023/10/05 10:46:21;;;;;;;1.30;1.20;;;;;;;27.47;38.38;100132.91;5093742;28;20209;-67
2023/10/05 10:48:54;;;;;;;0.90;0.90;;;;;;;27.42;39.22;100131.63;5094109;28;20571;-64
2023/10/05 10:51:22;;;;;;;1.77;1.20;;;;;;;27.49;38.17;100120.44;5094123;28;20640;-64
2023/10/05 10:53:56;;;;;;;1.23;1.13;;;;;;;27.63;38.18;100121.81;5094034;28;20203;-64
2023/10/05 10:56:34;;;;;;;1.53;1.43;;;;;;;27.61;37.75;100115.88;5094016;28;20289;-64
2023/10/05 10:59:11;;;;;;;1.10;1.10;;;;;;;27.65;38.33;100114.63;5093599;28;20210;-63
2023/10/05 11:01:59;;;;;;;2.13;1.60;;;;;;;27.68;37.89;100114.34;5093657;28;20671;-63
2023/10/05 11:04:36;;;;;;;1.00;1.00;;;;;;;27.67;38.76;100112.69;5093761;28;20199;-64
2023/10/05 11:07:05;;;;;;;1.67;1.23;;;;;;;27.47;37.80;100106.56;5093248;28;20252;-65
2023/10/05 11:09:37;;;;;;;1.70;1.47;;;;;;;27.43;37.60;100104.31;5093840;28;20215;-65
2023/10/05 11:12:10;;;;;;;1.10;1.10;;;;;;;27.43;38.00;100099.06;5093612;28;20199;-64
2023/10/05 11:14:43;;;;;;;1.80;1.70;;;;;;;27.48;39.10;100099.50;5093659;28;20195;-65
2023/10/05 11:17:31;;;;;;;2.03;1.50;;;;;;;27.59;38.15;100099.38;5093525;28;20202;-64
2023/10/05 11:20:11;;;;;;;1.73;1.63;;;;;;;27.61;37.57;100097.44;5091903;28;20302;-65
2023/10/05 11:22:42;;;;;;;1.57;1.47;;;;;;;27.60;38.54;100085.22;5093015;28;20670;-65
2023/10/05 11:25:15;;;;;;;1.40;1.30;;;;;;;27.71;37.97;100093.00;5091904;28;20226;-69
2023/10/05 11:27:54;;;;;;;1.10;1.10;;;;;;;27.54;37.77;100080.50;5092785;28;20202;-64
2023/10/05 11:30:24;;;;;;;1.30;1.17;;;;;;;27.59;37.22;100084.38;5093348;28;20644;-65
2023/10/05 11:32:57;;;;;;;2.70;1.30;;;;;;;27.64;37.82;100086.59;5093293;28;20679;-64
2023/10/05 11:35:28;;;;;;;1.40;1.30;;;;;;;27.49;37.54;100078.28;5093001;28;20205;-66
2023/10/05 11:38:05;;;;;;;1.40;1.30;;;;;;;27.43;37.83;100070.91;5092973;28;20294;-65
2023/10/05 11:40:34;;;;;;;1.40;1.40;;;;;;;27.59;37.29;100073.03;5093307;28;20198;-65
2023/10/05 11:43:05;;;;;;;3.77;1.47;;;;;;;27.49;38.22;100080.09;5092875;28;20726;-63
2023/10/05 11:45:33;;;;;;;1.73;1.63;;;;;;;27.32;37.33;100064.94;5092850;28;20191;-66